Greenville, MI (48838)

10:18 AM EDT on August 31, 2016 (GMT -0400)
Langston | | Change Station

Elev 879 ft 43.31 °N, 85.24 °W | Updated 2 seconds ago

Overcast
Overcast
66.6 °F
Feels Like 66.6 °F
N
0.0
Wind Variable Wind from NNW
Gusts 3.0 mph

Today
High -- | Low -- °F
--% Chance of Precip.
Yesterday
High -- | Low -- °F
Precip. -- in
Pressure 30.04 in
Visibility 10.0 miles
Clouds Mostly Cloudy 1500 ft
Overcast 2400 ft
Dew Point 59 °F
Humidity 77%
Rainfall 0.00 in
Snow Depth Not available.
7:04 AM 8:16 PM
Waning Crescent, 1% visible
METAR KY70 311413Z AUTO 00000KT 10SM BKN015 OVC024 20/17 A3004 RMK AO2 T02040174
Pressure 30.04 in
Visibility 10.0 miles
Clouds Mostly Cloudy 1500 ft
Overcast 2400 ft
Dew Point 59 °F
Humidity 77%
Rainfall 0.00 in
Snow Depth Not available.
7:04 AM 8:16 PM
Waning Crescent, 1% visible
METAR KY70 311413Z AUTO 00000KT 10SM BKN015 OVC024 20/17 A3004 RMK AO2 T02040174

10-Day Weather Forecast

Almanac

Astronomy

Aug. 31, 2016 Rise Set
Actual Time
Civil Twilight
Nautical Twilight
Astronomical Twilight
Moon
Length of Visible Light
Length of Day
Tomorrow will be .
, % of the Moon is Illuminated

Today's Extremes

State Highs State Lows

Community

WunderPhotos

Upload Photos

1,936,087 photos uploaded!

WunderBlog® & News

Nearby

Air Quality

  Air Quality AQ Index Pollutant
Not available.

Snow Depth

Station Depth Elevation

Earthquake Activity

City Distance Mag. Time & Date
Minimum magnitude displayed is 2.5.

Coastal Water Temperatures

Place Temperature

Stations

Nearby Weather Stations

Station Location Temp. Windchill Dew Point Humidity Wind Precip. Elev Updated Type
                   

Watches & Warnings

There are currently no watches in effect.